Time;durP1;ratioP1;P1;durP2;ratioP2;P2;SDS_P1;SDS_P2;PMS_P1;PMS_P2;Temp;Humidity;BMP_temperature;BMP_pressure;BME280_temperature;BME280_humidity;BME280_pressure;Samples;Min_cycle;Max_cycle;Signal;HPM_P1;HPM_P2
2022/05/10 00:00:30;;;;;;;;;6.33;6.33;;;;;17.54;49.33;101963.84;4974805;28;8995;-64
2022/05/10 00:03:00;;;;;;;;;7.00;6.33;;;;;17.53;49.68;101959.44;4989779;28;8995;-64
2022/05/10 00:05:32;;;;;;;;;7.00;6.00;;;;;17.53;49.54;101957.56;4986134;28;9156;-65
2022/05/10 00:08:01;;;;;;;;;7.00;7.00;;;;;17.53;49.51;101960.28;4993179;28;9306;-64
2022/05/10 00:10:27;;;;;;;;;6.00;6.00;;;;;17.52;49.74;101957.78;4986224;28;9060;-62
2022/05/10 00:12:56;;;;;;;;;5.67;5.67;;;;;17.49;49.69;101948.13;4993358;28;9177;-64
2022/05/10 00:15:22;;;;;;;;;7.00;6.33;;;;;17.47;49.79;101952.97;4976932;28;9137;-66
2022/05/10 00:17:49;;;;;;;;;9.67;8.33;;;;;17.46;49.56;101945.00;4987978;28;9158;-66
2022/05/10 00:20:19;;;;;;;;;5.33;5.33;;;;;17.44;49.51;101938.94;4992959;28;9026;-66
2022/05/10 00:22:46;;;;;;;;;8.67;7.00;;;;;17.41;49.65;101932.03;4993486;28;9173;-65
2022/05/10 00:25:16;;;;;;;;;7.33;7.00;;;;;17.39;50.01;101933.31;4994205;28;9231;-65
2022/05/10 00:27:42;;;;;;;;;5.00;5.00;;;;;17.34;49.71;101917.63;4993393;28;9262;-65
2022/05/10 00:30:09;;;;;;;;;9.00;8.00;;;;;17.28;50.02;101922.00;4992171;28;9140;-66
2022/05/10 00:32:37;;;;;;;;;6.00;6.00;;;;;17.26;50.09;101924.13;4992445;28;9364;-65
2022/05/10 00:35:10;;;;;;;;;2.33;2.00;;;;;17.22;50.14;101916.59;4994719;28;9255;-66
2022/05/10 00:37:37;;;;;;;;;4.33;4.33;;;;;17.19;49.82;101920.56;4996405;28;9059;-66
2022/05/10 00:40:04;;;;;;;;;9.00;8.67;;;;;17.23;49.54;101915.56;4993733;28;9241;-67
2022/05/10 00:42:39;;;;;;;;;8.00;5.33;;;;;17.24;49.90;101911.78;4993449;28;9299;-66
2022/05/10 00:45:15;;;;;;;;;8.33;8.33;;;;;17.28;49.55;101911.13;4992618;28;9209;-66
2022/05/10 00:48:12;;;;;;;;;8.00;8.00;;;;;17.26;49.65;101915.13;4989726;28;9181;-66
2022/05/10 00:51:08;;;;;;;;;11.67;7.00;;;;;17.24;49.68;101907.16;4975889;28;9073;-65
2022/05/10 00:53:53;;;;;;;;;9.00;7.00;;;;;17.28;49.36;101910.31;4987205;28;9361;-65
2022/05/10 00:56:29;;;;;;;;;4.67;4.67;;;;;17.28;49.38;101900.25;4991021;28;9434;-68
2022/05/10 00:59:26;;;;;;;;;9.00;8.00;;;;;17.25;49.39;101902.56;4993340;28;9028;-67
2022/05/10 01:02:01;;;;;;;;;8.67;6.00;;;;;17.28;49.28;101896.69;4992570;28;9271;-67
2022/05/10 01:04:47;;;;;;;;;7.33;6.00;;;;;17.29;48.93;101896.47;4993241;28;9351;-67
2022/05/10 01:07:22;;;;;;;;;8.00;6.67;;;;;17.29;48.78;101890.19;4992879;28;9141;-66
2022/05/10 01:09:57;;;;;;;;;5.00;5.00;;;;;17.31;48.76;101890.84;4991628;28;9325;-68
2022/05/10 01:12:45;;;;;;;;;5.33;4.00;;;;;17.36;48.28;101880.13;4993093;28;9232;-67
2022/05/10 01:15:18;;;;;;;;;4.33;4.33;;;;;17.37;48.07;101883.69;4973820;28;9067;-67
2022/05/10 01:17:46;;;;;;;;;7.67;7.00;;;;;17.37;47.78;101870.06;4987385;28;9161;-67
2022/05/10 01:20:18;;;;;;;;;5.00;3.00;;;;;17.37;47.52;101873.63;4990690;28;9308;-68
2022/05/10 01:23:09;;;;;;;;;3.00;3.00;;;;;17.37;47.55;101875.53;4991633;28;9272;-68
2022/05/10 01:26:03;;;;;;;;;5.67;5.67;;;;;17.38;47.53;101866.28;4986394;28;9250;-68
2022/05/10 01:28:36;;;;;;;;;4.67;4.67;;;;;17.44;47.61;101869.00;4992607;28;9068;-67
2022/05/10 01:31:12;;;;;;;;;6.67;6.67;;;;;17.46;47.20;101866.06;4992786;28;9379;-66
2022/05/10 01:33:54;;;;;;;;;10.33;7.00;;;;;17.47;47.75;101856.88;4992047;28;9053;-67
2022/05/10 01:36:29;;;;;;;;;7.67;6.67;;;;;17.48;47.72;101856.63;4992130;28;10011;-69
2022/05/10 01:39:21;;;;;;;;;5.33;4.33;;;;;17.50;47.76;101851.84;4991266;28;9294;-68
2022/05/10 01:41:56;;;;;;;;;5.67;3.33;;;;;17.50;47.77;101850.97;4992506;28;9213;-69
2022/05/10 01:44:38;;;;;;;;;6.33;6.00;;;;;17.47;47.38;101851.44;4992806;28;8997;-67
2022/05/10 01:47:07;;;;;;;;;6.00;5.00;;;;;17.42;47.62;101846.63;4990728;28;9128;-67
2022/05/10 01:49:46;;;;;;;;;6.33;6.00;;;;;17.39;47.83;101835.34;4984926;28;9262;-68
2022/05/10 01:52:23;;;;;;;;;9.33;7.67;;;;;17.38;47.21;101839.94;4988437;28;9923;-66
2022/05/10 01:55:14;;;;;;;;;10.00;7.33;;;;;17.38;47.31;101829.06;4978428;28;9302;-67
2022/05/10 01:57:40;;;;;;;;;11.00;7.67;;;;;17.40;47.34;101828.81;4974517;28;9418;-67
2022/05/10 02:00:12;;;;;;;;;7.00;6.00;;;;;17.42;47.41;101824.00;4992148;28;9412;-67
2022/05/10 02:02:45;;;;;;;;;7.67;7.00;;;;;17.41;47.03;101825.06;4992384;28;9226;-68
2022/05/10 02:05:19;;;;;;;;;12.00;10.00;;;;;17.39;47.06;101822.56;4989831;28;9254;-68
2022/05/10 02:07:49;;;;;;;;;11.33;9.67;;;;;17.37;47.12;101824.63;4990345;28;9250;-66
2022/05/10 02:10:27;;;;;;;;;11.67;9.00;;;;;17.34;47.12;101814.22;4992060;28;9283;-66
2022/05/10 02:13:07;;;;;;;;;9.00;8.00;;;;;17.37;47.07;101815.66;4991678;28;9849;-69
2022/05/10 02:15:58;;;;;;;;;8.67;6.33;;;;;17.29;47.57;101817.53;4992215;28;9456;-67
2022/05/10 02:18:41;;;;;;;;;6.33;5.67;;;;;17.28;47.46;101818.59;4990798;28;9161;-67
2022/05/10 02:21:15;;;;;;;;;7.00;6.50;;;;;17.29;47.53;101809.38;4988845;28;9258;-68
2022/05/10 02:23:57;;;;;;;;;7.67;5.67;;;;;17.32;47.30;101810.84;4991130;28;9216;-68
2022/05/10 02:26:48;;;;;;;;;7.00;5.33;;;;;17.33;47.40;101808.97;4991812;28;9991;-67
2022/05/10 02:29:33;;;;;;;;;7.67;7.67;;;;;17.34;47.67;101810.63;4991424;28;9148;-68
2022/05/10 02:35:05;;;;;;;;;10.00;8.00;;;;;17.33;47.84;101803.53;4982074;28;9296;-67
2022/05/10 02:37:32;;;;;;;;;7.00;6.00;;;;;17.30;47.72;101802.91;4991024;28;9313;-67
2022/05/10 02:40:00;;;;;;;;;6.33;6.33;;;;;17.28;48.03;101794.13;4991049;28;9308;-67
2022/05/10 02:42:28;;;;;;;;;9.00;8.00;;;;;17.30;48.48;101799.38;4991492;28;9120;-67
2022/05/10 02:44:55;;;;;;;;;8.33;7.33;;;;;17.29;47.86;101795.78;4990715;28;9251;-68
2022/05/10 02:47:30;;;;;;;;;7.00;6.67;;;;;17.30;48.41;101791.19;4987436;28;9372;-66
2022/05/10 02:49:57;;;;;;;;;6.67;6.33;;;;;17.30;48.26;101789.31;4990008;28;9057;-69
2022/05/10 02:52:23;;;;;;;;;6.00;5.00;;;;;17.28;48.06;101785.94;4984729;28;9239;-68
2022/05/10 02:55:09;;;;;;;;;6.00;6.00;;;;;17.28;48.32;101783.22;4983063;28;9229;-68
2022/05/10 02:57:36;;;;;;;;;6.67;6.67;;;;;17.28;48.41;101783.22;4990628;28;9297;-68
2022/05/10 03:00:06;;;;;;;;;10.33;8.67;;;;;17.32;48.62;101771.91;4989108;28;9177;-68
2022/05/10 03:02:40;;;;;;;;;9.67;9.67;;;;;17.27;48.72;101773.41;4988699;28;9362;-67
2022/05/10 03:05:08;;;;;;;;;7.33;6.33;;;;;17.25;48.43;101766.50;4991027;28;9399;-68
2022/05/10 03:07:35;;;;;;;;;7.00;6.33;;;;;17.27;48.49;101770.69;4990232;28;9231;-66
2022/05/10 03:10:02;;;;;;;;;6.33;6.33;;;;;17.28;48.88;101757.91;4991378;28;9326;-70
2022/05/10 03:12:29;;;;;;;;;7.67;7.00;;;;;17.25;48.86;101761.88;4989014;28;9170;-68
2022/05/10 03:14:56;;;;;;;;;5.33;5.33;;;;;17.23;48.86;101763.16;4991202;28;9339;-67
2022/05/10 03:17:23;;;;;;;;;7.00;7.00;;;;;17.22;49.23;101748.72;4989847;28;9240;-65
2022/05/10 03:19:50;;;;;;;;;11.33;9.00;;;;;17.22;49.42;101753.34;4989569;28;9244;-66
2022/05/10 03:22:16;;;;;;;;;6.00;6.00;;;;;17.22;49.14;101754.19;4995173;28;9156;-68
2022/05/10 03:24:43;;;;;;;;;9.00;8.67;;;;;17.24;49.05;101751.22;4995238;28;9229;-67
2022/05/10 03:27:12;;;;;;;;;9.33;9.33;;;;;17.24;49.39;101748.50;4988292;28;9321;-67
2022/05/10 03:29:40;;;;;;;;;10.00;8.00;;;;;17.25;49.35;101733.84;4993491;28;9275;-68
2022/05/10 03:32:08;;;;;;;;;9.67;8.00;;;;;17.23;49.31;101742.22;4994469;28;9055;-68
2022/05/10 03:37:21;;;;;;;;;7.33;7.00;;;;;17.19;49.80;101741.00;4994286;28;9078;-68
2022/05/10 03:39:47;;;;;;;;;9.67;7.00;;;;;17.20;49.69;101737.22;4994590;28;9822;-67
2022/05/10 03:42:18;;;;;;;;;9.00;9.00;;;;;17.20;49.99;101741.81;4993188;28;9079;-67
2022/05/10 03:44:51;;;;;;;;;8.33;6.67;;;;;17.19;49.81;101732.00;4992120;28;9191;-66
2022/05/10 03:47:27;;;;;;;;;7.67;5.67;;;;;17.16;49.98;101738.69;4991500;28;9129;-67
2022/05/10 03:49:56;;;;;;;;;7.67;7.00;;;;;17.10;49.95;101736.03;4994814;28;9077;-66
2022/05/10 03:52:22;;;;;;;;;8.00;7.00;;;;;17.08;50.06;101730.78;4994693;28;9070;-68
2022/05/10 03:54:49;;;;;;;;;8.00;8.00;;;;;17.09;50.17;101720.72;4975571;28;9346;-68
2022/05/10 03:57:19;;;;;;;;;6.33;6.33;;;;;17.12;49.86;101723.03;4985316;28;9238;-68
2022/05/10 03:59:46;;;;;;;;;11.00;8.00;;;;;17.15;49.97;101722.59;4991280;28;9974;-68
2022/05/10 04:02:14;;;;;;;;;10.67;10.67;;;;;17.12;50.35;101723.03;4993894;28;9301;-67
2022/05/10 04:04:40;;;;;;;;;12.00;12.00;;;;;17.10;50.00;101725.16;4980056;28;9317;-67
2022/05/10 04:07:09;;;;;;;;;16.67;15.00;;;;;17.07;50.17;101720.13;4980284;28;10114;-67
2022/05/10 04:09:36;;;;;;;;;11.00;10.00;;;;;17.04;50.24;101724.94;4994713;28;9481;-67
2022/05/10 04:12:03;;;;;;;;;10.33;8.33;;;;;17.09;50.47;101726.16;4987239;28;9387;-66
2022/05/10 04:14:29;;;;;;;;;8.00;7.00;;;;;17.09;50.58;101721.56;4989445;28;9229;-66
2022/05/10 04:16:56;;;;;;;;;11.67;9.00;;;;;17.07;50.78;101731.84;4990887;28;9260;-67
2022/05/10 04:19:22;;;;;;;;;7.33;7.33;;;;;17.09;50.62;101712.56;4994108;28;9250;-66
2022/05/10 04:21:49;;;;;;;;;8.00;8.00;;;;;17.12;50.66;101714.88;5009168;28;9166;-66
2022/05/10 04:24:16;;;;;;;;;9.33;9.33;;;;;17.10;50.84;101720.53;4993247;28;9265;-68
2022/05/10 04:26:44;;;;;;;;;7.33;7.33;;;;;17.07;50.62;101710.06;4988462;28;9181;-68
2022/05/10 04:29:11;;;;;;;;;8.00;8.00;;;;;17.05;50.92;101717.59;4989319;28;9157;-67
2022/05/10 04:31:38;;;;;;;;;14.67;11.33;;;;;17.05;50.72;101706.72;4990966;28;9185;-67
2022/05/10 04:34:05;;;;;;;;;14.00;11.67;;;;;17.04;50.77;101707.78;4978322;28;9379;-66
2022/05/10 04:36:32;;;;;;;;;17.67;13.33;;;;;17.06;50.76;101697.53;4974524;28;9951;-67
2022/05/10 04:38:58;;;;;;;;;14.33;13.00;;;;;17.04;50.77;101708.63;4988300;28;10116;-67
2022/05/10 04:41:31;;;;;;;;;11.00;10.00;;;;;17.09;50.98;101704.41;4987535;28;9447;-67
2022/05/10 04:44:01;;;;;;;;;12.33;12.33;;;;;17.07;50.78;101706.53;4987545;28;9278;-66
2022/05/10 04:46:30;;;;;;;;;15.33;14.33;;;;;17.07;50.83;101704.63;4986354;28;9326;-68
2022/05/10 04:48:58;;;;;;;;;16.00;15.00;;;;;17.07;50.98;101704.63;4983294;28;9336;-67
2022/05/10 04:51:25;;;;;;;;;15.50;11.75;;;;;17.09;51.08;101702.53;4983249;28;9315;-68
2022/05/10 04:53:52;;;;;;;;;13.00;12.75;;;;;17.09;51.24;101699.81;4986680;28;9396;-67
2022/05/10 04:56:18;;;;;;;;;18.00;16.25;;;;;17.05;51.06;101704.88;4992929;28;9533;-68
2022/05/10 04:58:45;;;;;;;;;13.67;12.67;;;;;17.05;51.33;101695.84;4992775;28;9693;-66
2022/05/10 05:01:14;;;;;;;;;14.25;12.50;;;;;17.07;51.12;101692.94;4989559;28;9344;-67
2022/05/10 05:03:45;;;;;;;;;12.00;11.33;;;;;17.09;50.96;101691.63;4992947;28;9542;-67
2022/05/10 05:06:12;;;;;;;;;13.00;12.00;;;;;17.09;51.04;101696.25;4993055;28;9390;-68
2022/05/10 05:08:40;;;;;;;;;13.33;13.33;;;;;17.05;51.04;101684.97;4977728;28;9402;-66
2022/05/10 05:11:07;;;;;;;;;9.33;8.67;;;;;17.03;51.20;101687.09;4990713;28;9306;-66
2022/05/10 05:13:33;;;;;;;;;15.50;14.50;;;;;17.04;50.93;101686.03;4981564;28;9388;-67
2022/05/10 05:16:00;;;;;;;;;12.00;11.67;;;;;17.09;50.82;101691.63;4990524;28;9452;-67
2022/05/10 05:18:27;;;;;;;;;13.33;11.33;;;;;17.09;50.63;101678.03;4986139;28;9464;-66
2022/05/10 05:20:54;;;;;;;;;15.50;12.75;;;;;17.08;50.88;101689.16;4984186;28;9421;-67
2022/05/10 05:23:22;;;;;;;;;12.00;11.00;;;;;17.06;50.67;101686.66;4989794;28;9446;-66
2022/05/10 05:25:50;;;;;;;;;12.00;11.00;;;;;17.04;51.21;101686.03;4991473;28;9451;-67
2022/05/10 05:28:16;;;;;;;;;12.00;11.25;;;;;17.06;50.91;101683.94;4989919;28;9294;-66
2022/05/10 05:30:44;;;;;;;;;18.00;14.00;;;;;17.11;50.79;101692.28;4990931;28;9476;-66
2022/05/10 05:33:11;;;;;;;;;11.00;11.00;;;;;17.11;50.83;101688.72;4988978;28;9417;-66
2022/05/10 05:35:37;;;;;;;;;11.33;11.33;;;;;17.10;51.09;101682.44;4987238;28;9392;-67
2022/05/10 05:38:04;;;;;;;;;18.25;17.00;;;;;17.09;50.71;101680.75;4991993;28;9381;-67
2022/05/10 05:40:32;;;;;;;;;16.00;15.33;;;;;17.13;50.42;101686.59;4992101;28;9521;-67
2022/05/10 05:42:59;;;;;;;;;15.00;13.00;;;;;17.14;50.90;101678.25;4991430;28;9450;-66
2022/05/10 05:45:26;;;;;;;;;16.00;13.00;;;;;17.18;50.42;101690.34;4988652;28;9530;-66
2022/05/10 05:47:55;;;;;;;;;14.75;14.50;;;;;17.18;50.18;101673.19;4987177;28;9530;-66
2022/05/10 05:50:24;;;;;;;;;13.00;12.00;;;;;17.19;50.23;101683.84;4985382;28;10275;-66
2022/05/10 05:52:56;;;;;;;;;20.25;18.75;;;;;17.20;50.56;101674.63;4995231;28;10000;-66
2022/05/10 05:55:23;;;;;;;;;12.00;12.00;;;;;17.21;50.65;101676.28;4991890;28;9668;-68
2022/05/10 05:57:50;;;;;;;;;15.00;15.00;;;;;17.26;50.44;101664.78;4991365;28;9466;-67
2022/05/10 06:00:25;;;;;;;;;21.00;16.00;;;;;17.27;50.54;101675.44;4992132;28;9400;-67
2022/05/10 06:02:53;;;;;;;;;19.00;16.00;;;;;17.33;50.24;101676.44;4992161;28;9465;-67
2022/05/10 06:05:21;;;;;;;;;22.75;17.75;;;;;17.34;50.47;101661.81;4990924;28;9542;-67
2022/05/10 06:07:48;;;;;;;;;15.75;15.75;;;;;17.30;50.29;101666.84;4989232;28;9532;-66
2022/05/10 06:10:15;;;;;;;;;22.25;20.75;;;;;17.30;50.62;101664.13;4983288;28;9525;-66
2022/05/10 06:12:42;;;;;;;;;17.75;16.50;;;;;17.28;50.63;101659.94;4989663;28;9727;-67
2022/05/10 06:15:14;;;;;;;;;22.25;20.25;;;;;17.29;51.08;101665.16;4991634;28;9636;-68
2022/05/10 06:17:42;;;;;;;;;18.00;17.50;;;;;17.28;51.16;101649.88;4987700;28;9702;-68
2022/05/10 06:20:11;;;;;;;;;25.75;23.50;;;;;17.31;51.38;101648.63;4991405;28;9623;-65
2022/05/10 06:22:37;;;;;;;;;20.00;18.75;;;;;17.35;51.45;101640.88;4990888;28;9580;-66
2022/05/10 06:25:05;;;;;;;;;21.50;19.00;;;;;17.36;51.69;101646.06;4989899;28;9600;-67
2022/05/10 06:27:35;;;;;;;;;19.00;19.00;;;;;17.39;51.89;101637.47;4988040;28;9526;-66
2022/05/10 06:30:03;;;;;;;;;16.25;16.25;;;;;17.41;51.92;101635.34;4985698;28;9600;-69
2022/05/10 06:32:31;;;;;;;;;27.50;24.00;;;;;17.46;51.32;101638.28;4992168;28;9527;-66
2022/05/10 06:34:59;;;;;;;;;22.50;22.50;;;;;17.47;51.39;101634.50;4991615;28;9772;-68
2022/05/10 06:40:14;;;;;;;;;21.25;20.75;;;;;17.51;51.17;101635.72;4991454;28;9600;-65
2022/05/10 06:42:41;;;;;;;;;19.00;18.25;;;;;17.56;51.47;101626.88;4987428;28;9684;-67
2022/05/10 06:45:13;;;;;;;;;17.25;14.25;;;;;17.59;51.43;101621.00;4989940;28;9632;-65
2022/05/10 06:47:46;;;;;;;;;17.50;14.50;;;;;17.62;51.36;101625.16;4971437;28;9554;-65
2022/05/10 06:50:15;;;;;;;;;21.00;21.00;;;;;17.63;51.57;101619.50;4986054;28;9449;-65
2022/05/10 06:52:42;;;;;;;;;18.75;18.25;;;;;17.66;51.85;101615.47;4971797;28;10255;-67
2022/05/10 06:55:14;;;;;;;;;17.50;16.50;;;;;17.71;51.91;101612.94;4985314;28;9526;-66
2022/05/10 06:57:40;;;;;;;;;20.50;18.75;;;;;17.71;51.45;101608.31;4989919;28;9444;-64
2022/05/10 07:00:09;;;;;;;;;13.00;13.00;;;;;17.75;51.75;101606.03;4989136;28;9628;-66
2022/05/10 07:02:37;;;;;;;;;13.33;13.00;;;;;17.81;51.90;101607.00;4979853;28;9266;-65
2022/05/10 07:05:05;;;;;;;;;15.67;15.67;;;;;17.83;51.91;101602.19;4972623;28;9235;-66
2022/05/10 07:07:33;;;;;;;;;19.67;19.00;;;;;17.88;51.43;101591.44;4978589;28;9403;-65
2022/05/10 07:10:00;;;;;;;;;16.33;12.67;;;;;17.92;51.38;101596.22;4971473;28;9469;-66
2022/05/10 07:12:26;;;;;;;;;15.25;15.25;;;;;17.96;51.34;101586.53;4982250;28;9390;-65
2022/05/10 07:14:53;;;;;;;;;12.67;11.00;;;;;18.01;51.91;101581.25;4971093;28;9535;-66
2022/05/10 07:17:19;;;;;;;;;17.50;15.75;;;;;18.07;51.34;101578.66;4985896;28;9268;-64
2022/05/10 07:19:46;;;;;;;;;12.67;11.00;;;;;18.11;51.24;101585.31;4972110;28;9476;-65
2022/05/10 07:22:12;;;;;;;;;14.00;11.67;;;;;18.15;51.11;101589.25;4985260;28;9384;-66
2022/05/10 07:24:39;;;;;;;;;12.67;12.67;;;;;18.20;51.21;101584.81;4990999;28;9237;-64
2022/05/10 07:27:05;;;;;;;;;16.50;16.50;;;;;18.23;50.59;101586.25;4990029;28;9312;-67
2022/05/10 07:29:32;;;;;;;;;11.33;10.33;;;;;18.30;50.61;101576.09;4990793;28;9462;-68
2022/05/10 07:31:59;;;;;;;;;17.33;13.67;;;;;18.36;50.45;101572.47;4988407;28;9326;-66
2022/05/10 07:34:26;;;;;;;;;16.33;15.00;;;;;18.35;50.27;101575.41;4990968;28;9221;-67
2022/05/10 07:36:52;;;;;;;;;14.33;14.00;;;;;18.36;50.06;101575.22;4990189;28;10184;-68
2022/05/10 07:39:23;;;;;;;;;19.33;19.33;;;;;18.38;50.10;101564.06;4990594;28;9173;-67
2022/05/10 07:41:51;;;;;;;;;14.00;14.00;;;;;18.44;50.08;101566.72;4990374;28;10151;-67
2022/05/10 07:44:18;;;;;;;;;14.67;13.67;;;;;18.50;49.86;101573.97;4990405;28;9319;-67
2022/05/10 07:46:45;;;;;;;;;18.33;17.33;;;;;18.52;50.21;101571.84;4981390;28;9314;-65
2022/05/10 07:49:11;;;;;;;;;14.00;14.00;;;;;18.57;49.93;101576.63;4971429;28;9449;-67
2022/05/10 07:51:38;;;;;;;;;17.00;16.33;;;;;18.63;50.14;101567.50;4979378;28;9301;-67
2022/05/10 07:54:04;;;;;;;;;13.67;13.67;;;;;18.68;50.24;101569.56;4990462;28;9432;-66
2022/05/10 07:56:31;;;;;;;;;20.33;19.33;;;;;18.73;50.17;101580.66;4988868;28;9399;-66
2022/05/10 07:58:58;;;;;;;;;18.67;17.67;;;;;18.71;50.19;101575.41;4990137;28;9597;-67
2022/05/10 08:01:26;;;;;;;;;19.00;16.33;;;;;18.77;50.75;101569.03;4985319;28;9372;-67
2022/05/10 08:03:53;;;;;;;;;15.00;12.00;;;;;18.95;50.64;101564.59;4970981;28;9317;-65
2022/05/10 08:06:20;;;;;;;;;12.67;12.00;;;;;19.17;50.63;101559.44;4979078;28;9070;-64
2022/05/10 08:08:48;;;;;;;;;15.67;15.67;;;;;19.29;50.18;101546.66;4994902;28;9003;-64
2022/05/10 08:11:15;;;;;;;;;20.33;18.67;;;;;19.41;50.10;101541.22;4990099;28;9244;-67
2022/05/10 08:13:42;;;;;;;;;20.00;20.00;;;;;19.39;49.72;101556.97;4989065;28;9154;-63
2022/05/10 08:16:09;;;;;;;;;17.33;16.67;;;;;19.38;50.06;101553.44;4993258;28;9214;-65
2022/05/10 08:18:40;;;;;;;;;24.67;21.00;;;;;19.34;49.70;101545.94;4980108;28;9273;-64
2022/05/10 08:21:07;;;;;;;;;18.00;17.33;;;;;19.38;50.14;101545.22;4979981;28;9340;-66
2022/05/10 08:23:36;;;;;;;;;19.33;16.67;;;;;19.42;50.30;101551.06;4994922;28;9157;-66
2022/05/10 08:26:04;;;;;;;;;18.00;15.00;;;;;19.42;50.33;101553.78;4995345;28;9146;-65
2022/05/10 08:28:34;;;;;;;;;19.00;18.33;;;;;19.47;50.28;101551.16;4994603;28;9143;-65
2022/05/10 08:31:06;;;;;;;;;22.67;19.67;;;;;19.50;50.20;101556.16;4993255;28;9176;-66
2022/05/10 08:33:37;;;;;;;;;19.67;19.00;;;;;19.60;50.02;101564.59;4993494;28;9321;-65
2022/05/10 08:36:05;;;;;;;;;17.67;17.33;;;;;19.78;49.92;101562.88;4992944;28;9243;-65
2022/05/10 08:38:31;;;;;;;;;23.67;20.00;;;;;19.86;49.71;101554.31;4993663;28;9240;-63
2022/05/10 08:41:03;;;;;;;;;17.33;16.67;;;;;19.99;49.61;101543.13;4994634;28;9500;-66
2022/05/10 08:43:42;;;;;;;;;18.67;16.67;;;;;20.04;49.71;101554.16;4993229;28;9050;-64
2022/05/10 08:46:15;;;;;;;;;15.00;13.00;;;;;20.09;49.57;101543.31;4994400;28;8993;-66
2022/05/10 08:48:46;;;;;;;;;20.67;18.00;;;;;20.09;49.63;101547.97;4991321;28;8923;-65
2022/05/10 08:51:13;;;;;;;;;13.67;13.33;;;;;20.10;49.42;101555.94;4994594;28;9225;-64
2022/05/10 08:53:39;;;;;;;;;19.00;17.33;;;;;20.06;49.56;101552.03;4994110;28;8981;-65
2022/05/10 08:56:17;;;;;;;;;9.75;9.75;;;;;20.12;49.57;101548.31;4992826;28;9124;-66
2022/05/10 08:58:59;;;;;;;;;19.00;14.33;;;;;20.19;49.43;101542.72;4994053;28;8878;-64
2022/05/10 09:01:45;;;;;;;;;18.00;18.00;;;;;20.27;49.74;101555.19;4994408;28;9012;-66
2022/05/10 09:04:23;;;;;;;;;17.67;13.67;;;;;20.26;49.71;101546.16;4994521;28;9877;-66
2022/05/10 09:07:25;;;;;;;;;12.25;11.75;;;;;20.33;50.00;101546.84;4992829;28;9042;-66
2022/05/10 09:10:04;;;;;;;;;12.25;12.25;;;;;20.40;49.75;101542.06;4992485;28;8829;-65
2022/05/10 09:12:58;;;;;;;;;16.33;16.00;;;;;20.48;49.37;101549.94;4994385;28;8838;-67
2022/05/10 09:15:27;;;;;;;;;15.67;14.33;;;;;20.57;49.36;101546.81;4994308;28;8935;-65
2022/05/10 09:17:53;;;;;;;;;14.75;11.75;;;;;20.64;49.36;101551.06;4994155;28;8907;-65
2022/05/10 09:20:20;;;;;;;;;12.00;11.00;;;;;20.58;48.31;101548.44;4997247;28;8830;-66
2022/05/10 09:23:29;;;;;;;;;7.25;7.25;;;;;20.74;48.53;101547.69;4998507;28;8920;-65
2022/05/10 09:25:57;;;;;;;;;11.00;9.75;;;;;20.86;47.95;101545.72;4990887;28;9513;-65
2022/05/10 09:28:44;;;;;;;;;8.75;8.50;;;;;20.95;47.80;101538.78;4998367;28;9585;-66
2022/05/10 09:34:47;;;;;;;;;6.50;6.50;;;;;21.04;46.70;101538.38;4993645;28;8849;-65
2022/05/10 09:37:17;;;;;;;;;13.00;8.75;;;;;21.06;46.08;101537.03;4993694;28;8891;-65
2022/05/10 09:39:56;;;;;;;;;8.75;8.75;;;;;21.11;45.02;101539.06;4983555;28;8841;-64
2022/05/10 09:42:40;;;;;;;;;8.50;7.50;;;;;21.15;44.95;101532.00;4985073;28;8860;-65
2022/05/10 09:45:14;;;;;;;;;10.00;7.50;;;;;21.10;44.72;101535.47;4983943;28;8960;-66
2022/05/10 09:47:58;;;;;;;;;8.50;8.50;;;;;21.13;44.26;101534.97;4975873;28;8976;-66
2022/05/10 09:50:40;;;;;;;;;6.75;5.50;;;;;21.29;44.60;101540.72;4987614;28;8858;-65
2022/05/10 09:53:09;;;;;;;;;6.00;6.00;;;;;21.36;44.35;101535.94;5001869;28;8889;-65
2022/05/10 09:55:35;;;;;;;;;6.00;4.75;;;;;21.41;44.12;101536.00;4984638;28;8944;-67
2022/05/10 09:58:19;;;;;;;;;4.00;4.00;;;;;21.41;43.97;101536.84;4985204;28;9537;-67
2022/05/10 10:00:55;;;;;;;;;4.25;4.25;;;;;21.44;44.00;101543.75;4985453;28;9517;-66
2022/05/10 10:03:38;;;;;;;;;9.75;8.75;;;;;21.33;43.64;101547.38;4985078;28;8859;-67
2022/05/10 10:06:21;;;;;;;;;9.75;9.00;;;;;21.32;43.50;101542.97;4985380;28;8830;-68
2022/05/10 10:08:53;;;;;;;;;7.25;7.25;;;;;21.41;43.74;101536.84;5012035;23;8902;-65
2022/05/10 10:11:39;;;;;;;;;9.25;9.25;;;;;21.53;43.74;101541.41;5003681;28;8835;-65
2022/05/10 10:14:09;;;;;;;;;9.50;8.00;;;;;21.65;43.65;101542.97;5004973;28;8862;-66
2022/05/10 10:16:45;;;;;;;;;9.00;7.75;;;;;21.69;43.53;101535.09;5003700;28;8830;-65
2022/05/10 10:19:40;;;;;;;;;9.75;9.00;;;;;21.71;43.38;101530.16;5005228;28;8843;-66
2022/05/10 10:22:17;;;;;;;;;7.50;7.00;;;;;21.75;43.32;101535.97;5005152;28;8871;-66
2022/05/10 10:24:54;;;;;;;;;10.25;10.25;;;;;21.79;43.15;101540.69;5005440;28;9633;-65
2022/05/10 10:27:34;;;;;;;;;9.00;9.00;;;;;21.88;43.18;101538.38;5002632;28;9565;-67
2022/05/10 10:30:25;;;;;;;;;8.00;8.00;;;;;21.93;43.46;101544.75;5004829;28;8881;-66
2022/05/10 10:33:00;;;;;;;;;9.25;8.00;;;;;21.91;43.65;101543.31;5005308;28;8859;-65
2022/05/10 10:35:35;;;;;;;;;7.50;7.25;;;;;21.86;42.90;101535.03;5003315;28;8843;-65
2022/05/10 10:38:11;;;;;;;;;8.75;7.75;;;;;21.81;42.20;101554.16;5005648;28;8867;-65
2022/05/10 10:40:43;;;;;;;;;6.50;6.50;;;;;21.76;42.57;101557.66;5004407;28;8869;-65
2022/05/10 10:43:22;;;;;;;;;7.25;6.00;;;;;21.69;42.82;101549.59;5006451;28;8862;-66
2022/05/10 10:46:03;;;;;;;;;8.50;8.50;;;;;21.63;42.97;101547.88;5005467;28;8822;-66
2022/05/10 10:48:42;;;;;;;;;8.75;7.50;;;;;21.55;42.79;101550.19;5003381;28;8822;-66
2022/05/10 10:51:09;;;;;;;;;7.00;7.00;;;;;21.46;42.89;101547.88;5004742;28;8827;-65
2022/05/10 10:53:37;;;;;;;;;4.25;4.25;;;;;21.51;42.47;101547.13;5003016;28;8878;-66
2022/05/10 10:56:21;;;;;;;;;10.50;10.00;;;;;21.47;42.79;101556.91;5004326;28;8901;-66
2022/05/10 10:59:06;;;;;;;;;7.75;7.75;;;;;21.60;42.52;101548.38;5004929;28;8843;-65
2022/05/10 11:02:09;;;;;;;;;9.25;9.25;;;;;21.58;42.10;101544.22;5003179;28;8854;-65
2022/05/10 11:04:47;;;;;;;;;8.50;8.50;;;;;21.65;42.27;101550.38;5004567;28;8839;-65
2022/05/10 11:07:41;;;;;;;;;7.75;7.75;;;;;21.68;42.37;101550.69;5005252;28;8831;-65
2022/05/10 11:10:23;;;;;;;;;6.50;6.50;;;;;21.78;42.64;101532.72;5018974;28;8847;-65
2022/05/10 11:13:01;;;;;;;;;8.00;6.75;;;;;21.77;42.15;101533.81;5001220;28;9605;-66
2022/05/10 11:15:44;;;;;;;;;12.50;10.50;;;;;21.82;42.05;101551.16;5003294;28;8838;-64
2022/05/10 11:18:32;;;;;;;;;8.25;5.50;;;;;21.86;42.17;101541.34;5003298;28;8846;-66
2022/05/10 11:21:15;;;;;;;;;6.00;6.00;;;;;21.85;42.08;101541.63;5004760;28;9538;-64
2022/05/10 11:24:09;;;;;;;;;5.25;4.50;;;;;21.93;42.57;101538.44;5002797;28;8866;-68
2022/05/10 11:26:55;;;;;;;;;9.00;9.00;;;;;21.88;41.90;101550.16;5004633;28;8831;-66
2022/05/10 11:29:40;;;;;;;;;11.25;10.25;;;;;21.84;41.68;101549.00;5004345;28;8860;-64
2022/05/10 11:32:26;;;;;;;;;7.00;6.25;;;;;21.79;40.69;101548.09;5003877;28;8840;-66
2022/05/10 11:35:19;;;;;;;;;7.00;4.75;;;;;21.68;40.63;101542.47;5019685;28;8850;-65
2022/05/10 11:38:06;;;;;;;;;7.25;7.25;;;;;21.63;40.44;101547.03;5004439;28;8827;-65
2022/05/10 11:40:54;;;;;;;;;6.50;4.75;;;;;21.59;40.51;101538.50;5003748;28;8889;-65
2022/05/10 11:43:46;;;;;;;;;6.75;4.00;;;;;21.57;39.92;101550.78;5008778;28;8961;-65
2022/05/10 11:46:43;;;;;;;;;7.00;6.50;;;;;21.44;39.65;101538.25;5009018;28;8873;-66
2022/05/10 11:49:34;;;;;;;;;8.75;6.00;;;;;21.44;39.42;101530.88;5006937;28;8884;-66
2022/05/10 11:52:27;;;;;;;;;4.00;3.25;;;;;21.54;39.36;101535.66;5007486;28;8871;-65
2022/05/10 11:55:06;;;;;;;;;0.75;0.00;;;;;21.68;39.33;101547.13;5007488;28;8842;-65
2022/05/10 11:57:34;;;;;;;;;3.50;3.50;;;;;21.65;39.05;101536.66;5001504;28;8839;-65
2022/05/10 12:00:25;;;;;;;;;4.00;3.75;;;;;21.55;39.27;101540.06;5006778;28;8839;-65
2022/05/10 12:02:56;;;;;;;;;4.00;4.00;;;;;21.54;39.39;101540.31;5005557;28;9715;-65
2022/05/10 12:05:28;;;;;;;;;5.50;4.00;;;;;21.48;39.27;101533.94;5007983;28;8834;-62